Time;durP1;ratioP1;P1;durP2;ratioP2;P2;SDS_P1;SDS_P2;PMS_P1;PMS_P2;Temp;Humidity;BMP_temperature;BMP_pressure;BME280_temperature;BME280_humidity;BME280_pressure;Samples;Min_cycle;Max_cycle;Signal;HPM_P1;HPM_P2
2022/06/09 00:01:46;;;;;;;2.83;1.47;;;;;;;;;;4983016;28;20440;-87
2022/06/09 00:04:20;;;;;;;2.57;1.40;;;;;;;;;;4982281;28;20424;-87
2022/06/09 00:06:49;;;;;;;3.40;1.43;;;;;;;;;;4985780;28;20448;-86
2022/06/09 00:09:17;;;;;;;4.60;2.70;;;;;;;;;;4986195;28;20735;-86
2022/06/09 00:11:48;;;;;;;2.70;1.13;;;;;;;;;;4983104;28;20488;-86
2022/06/09 00:14:14;;;;;;;2.47;1.40;;;;;;;;;;4982738;28;20444;-86
2022/06/09 00:16:41;;;;;;;3.30;1.37;;;;;;;;;;4981695;28;20405;-85
2022/06/09 00:19:07;;;;;;;6.80;2.27;;;;;;;;;;4981450;28;20468;-86
2022/06/09 00:21:37;;;;;;;2.90;1.40;;;;;;;;;;4980484;28;20409;-85
2022/06/09 00:24:03;;;;;;;2.17;1.50;;;;;;;;;;4982804;28;20416;-86
2022/06/09 00:26:30;;;;;;;4.27;1.53;;;;;;;;;;4982261;28;20463;-86
2022/06/09 00:28:56;;;;;;;1.60;1.37;;;;;;;;;;4986676;28;20429;-85
2022/06/09 00:31:22;;;;;;;2.03;1.23;;;;;;;;;;4986298;28;20519;-86
2022/06/09 00:33:48;;;;;;;3.23;1.40;;;;;;;;;;4981573;28;20409;-86
2022/06/09 00:36:15;;;;;;;1.80;1.27;;;;;;;;;;4982234;28;20409;-86
2022/06/09 00:38:41;;;;;;;2.47;1.43;;;;;;;;;;4980433;28;20433;-86
2022/06/09 00:41:07;;;;;;;2.27;1.40;;;;;;;;;;4982079;28;20560;-86
2022/06/09 00:43:33;;;;;;;1.80;1.27;;;;;;;;;;4981919;28;20456;-86
2022/06/09 00:46:11;;;;;;;5.27;1.67;;;;;;;;;;4980427;28;20417;-86
2022/06/09 00:48:56;;;;;;;3.00;1.60;;;;;;;;;;4981586;28;20534;-86
2022/06/09 00:51:35;;;;;;;2.97;1.70;;;;;;;;;;4981967;28;20847;-84
2022/06/09 00:54:13;;;;;;;2.67;1.77;;;;;;;;;;4982750;28;20434;-86
2022/06/09 00:56:42;;;;;;;2.90;1.77;;;;;;;;;;4982031;28;20397;-86
2022/06/09 00:59:11;;;;;;;4.13;1.73;;;;;;;;;;4981492;28;20425;-86
2022/06/09 01:01:39;;;;;;;3.63;2.10;;;;;;;;;;4980824;28;20418;-85
2022/06/09 01:04:07;;;;;;;1.90;1.60;;;;;;;;;;4981356;28;20413;-86
2022/06/09 01:06:41;;;;;;;9.27;2.73;;;;;;;;;;4981379;28;20493;-85
2022/06/09 01:09:10;;;;;;;4.33;1.77;;;;;;;;;;4981098;28;20429;-86
2022/06/09 01:11:36;;;;;;;4.67;1.90;;;;;;;;;;4981049;28;20433;-85
2022/06/09 01:14:03;;;;;;;3.33;2.00;;;;;;;;;;4981304;28;20856;-86
2022/06/09 01:16:31;;;;;;;2.00;1.47;;;;;;;;;;4981236;28;20408;-86
2022/06/09 01:19:16;;;;;;;5.37;2.57;;;;;;;;;;4981683;28;20499;-86
2022/06/09 01:21:42;;;;;;;2.77;1.50;;;;;;;;;;4979152;28;20450;-86
2022/06/09 01:24:09;;;;;;;2.47;1.67;;;;;;;;;;4976929;28;20506;-86
2022/06/09 01:27:04;;;;;;;3.80;1.93;;;;;;;;;;4961809;28;20457;-86
2022/06/09 01:29:36;;;;;;;3.13;1.70;;;;;;;;;;4953029;29;20441;-86
2022/06/09 01:32:11;;;;;;;3.30;1.60;;;;;;;;;;4960952;28;20414;-86
2022/06/09 01:34:37;;;;;;;2.80;1.70;;;;;;;;;;4960195;29;20406;-86
2022/06/09 01:37:18;;;;;;;3.57;1.97;;;;;;;;;;4961382;29;20406;-86
2022/06/09 01:39:44;;;;;;;6.50;2.40;;;;;;;;;;4960918;29;20502;-86
2022/06/09 01:42:31;;;;;;;2.83;2.10;;;;;;;;;;4961223;29;20836;-86
2022/06/09 01:44:59;;;;;;;3.10;2.50;;;;;;;;;;4961250;29;20406;-86
2022/06/09 01:47:28;;;;;;;5.80;2.20;;;;;;;;;;4960643;29;20481;-85
2022/06/09 01:49:55;;;;;;;3.70;2.37;;;;;;;;;;4960998;29;20419;-86
2022/06/09 01:52:22;;;;;;;2.90;2.60;;;;;;;;;;4960468;29;20772;-86
2022/06/09 01:54:49;;;;;;;3.70;2.30;;;;;;;;;;4961192;29;20933;-86
2022/06/09 01:57:21;;;;;;;3.07;2.30;;;;;;;;;;4960840;29;20426;-86
2022/06/09 01:59:56;;;;;;;3.00;2.03;;;;;;;;;;4960343;29;20907;-86
2022/06/09 02:02:26;;;;;;;4.20;2.47;;;;;;;;;;4960479;29;20417;-86
2022/06/09 02:04:56;;;;;;;3.90;2.10;;;;;;;;;;4961035;29;20430;-86
2022/06/09 02:07:22;;;;;;;3.70;2.13;;;;;;;;;;4960801;29;20482;-86
2022/06/09 02:09:48;;;;;;;3.00;2.30;;;;;;;;;;4960889;29;20412;-86
2022/06/09 02:12:15;;;;;;;6.10;2.60;;;;;;;;;;4960078;28;20429;-86
2022/06/09 02:14:45;;;;;;;3.97;2.10;;;;;;;;;;4960321;29;20413;-86
2022/06/09 02:17:11;;;;;;;3.40;2.47;;;;;;;;;;4960649;29;20434;-86
2022/06/09 02:19:39;;;;;;;4.90;2.57;;;;;;;;;;4960991;29;20438;-86
2022/06/09 02:22:06;;;;;;;3.83;3.00;;;;;;;;;;4959262;29;20450;-85
2022/06/09 02:24:32;;;;;;;4.13;2.60;;;;;;;;;;4960780;29;20456;-86
2022/06/09 02:26:58;;;;;;;3.10;2.60;;;;;;;;;;4962295;28;20525;-84
2022/06/09 02:29:24;;;;;;;4.43;3.10;;;;;;;;;;4962673;29;20456;-84
2022/06/09 02:31:50;;;;;;;3.70;2.73;;;;;;;;;;4961377;29;20488;-86
2022/06/09 02:34:17;;;;;;;4.97;2.40;;;;;;;;;;4961139;29;20406;-86
2022/06/09 02:36:43;;;;;;;5.10;2.67;;;;;;;;;;4961132;29;20509;-86
2022/06/09 02:39:09;;;;;;;2.97;2.30;;;;;;;;;;4963052;29;20429;-84
2022/06/09 02:41:35;;;;;;;3.83;2.37;;;;;;;;;;4972442;29;20445;-84
2022/06/09 02:44:01;;;;;;;2.80;2.30;;;;;;;;;;4966286;29;20477;-86
2022/06/09 02:46:27;;;;;;;4.93;2.77;;;;;;;;;;4960361;29;20546;-86
2022/06/09 02:48:53;;;;;;;3.60;2.50;;;;;;;;;;4959610;29;20437;-86
2022/06/09 02:51:30;;;;;;;3.43;2.37;;;;;;;;;;4959274;29;20445;-85
2022/06/09 02:53:57;;;;;;;7.93;2.70;;;;;;;;;;4959986;29;20406;-86
2022/06/09 02:56:24;;;;;;;3.27;2.47;;;;;;;;;;4958816;29;20414;-84
2022/06/09 02:58:50;;;;;;;5.40;2.77;;;;;;;;;;4961624;28;20464;-84
2022/06/09 03:01:16;;;;;;;4.70;2.73;;;;;;;;;;4973194;28;20448;-85
2022/06/09 03:03:42;;;;;;;5.13;3.37;;;;;;;;;;4986752;28;20412;-84
2022/06/09 03:06:08;;;;;;;5.87;2.83;;;;;;;;;;4978861;28;20914;-85
2022/06/09 03:08:34;;;;;;;6.17;2.73;;;;;;;;;;4978987;28;20429;-86
2022/06/09 03:11:00;;;;;;;5.20;2.27;;;;;;;;;;4978993;28;20413;-86
2022/06/09 03:13:27;;;;;;;3.93;2.60;;;;;;;;;;4979606;28;20480;-86
2022/06/09 03:15:53;;;;;;;3.53;2.97;;;;;;;;;;4979501;28;20401;-86
2022/06/09 03:18:19;;;;;;;3.47;2.40;;;;;;;;;;4980201;28;20457;-86
2022/06/09 03:20:46;;;;;;;4.87;2.73;;;;;;;;;;4978862;28;20890;-86
2022/06/09 03:23:12;;;;;;;4.17;2.90;;;;;;;;;;4978765;28;20405;-86
2022/06/09 03:25:38;;;;;;;3.20;2.50;;;;;;;;;;4979314;28;20453;-86
2022/06/09 03:28:05;;;;;;;6.20;2.90;;;;;;;;;;4977894;28;20469;-86
2022/06/09 03:30:32;;;;;;;4.83;2.83;;;;;;;;;;4979079;28;20480;-85
2022/06/09 03:32:58;;;;;;;3.17;2.40;;;;;;;;;;4979007;28;20424;-86
2022/06/09 03:35:24;;;;;;;3.10;2.20;;;;;;;;;;4978946;28;20913;-86
2022/06/09 03:37:50;;;;;;;2.70;1.97;;;;;;;;;;4978932;28;20425;-86
2022/06/09 03:40:19;;;;;;;4.60;2.57;;;;;;;;;;4979722;28;20405;-86
2022/06/09 03:42:45;;;;;;;5.23;2.00;;;;;;;;;;4979109;28;20489;-86
2022/06/09 03:45:12;;;;;;;7.97;2.33;;;;;;;;;;4976003;28;20437;-86
2022/06/09 03:47:38;;;;;;;3.50;2.40;;;;;;;;;;4977812;28;20470;-86
2022/06/09 03:50:05;;;;;;;3.40;2.50;;;;;;;;;;4980319;28;20468;-86
2022/06/09 03:52:32;;;;;;;3.47;2.00;;;;;;;;;;4979712;28;20409;-86
2022/06/09 03:54:58;;;;;;;3.70;2.30;;;;;;;;;;4980922;28;20410;-86
2022/06/09 03:57:24;;;;;;;3.17;2.37;;;;;;;;;;4981759;28;20432;-85
2022/06/09 03:59:50;;;;;;;4.30;2.40;;;;;;;;;;4981025;28;20405;-86
2022/06/09 04:02:16;;;;;;;3.30;2.10;;;;;;;;;;4981130;28;20456;-86
2022/06/09 04:04:42;;;;;;;2.57;2.07;;;;;;;;;;4980797;28;20411;-85
2022/06/09 04:07:10;;;;;;;3.47;1.87;;;;;;;;;;4979804;28;20464;-86
2022/06/09 04:09:36;;;;;;;4.40;2.97;;;;;;;;;;4979917;28;20968;-86
2022/06/09 04:12:02;;;;;;;2.90;2.10;;;;;;;;;;4980098;28;20440;-86
2022/06/09 04:14:28;;;;;;;3.70;2.20;;;;;;;;;;4978420;28;20564;-86
2022/06/09 04:16:55;;;;;;;2.87;1.90;;;;;;;;;;4979904;28;20441;-86
2022/06/09 04:19:22;;;;;;;4.60;1.83;;;;;;;;;;4980056;28;20609;-86
2022/06/09 04:21:49;;;;;;;4.70;2.27;;;;;;;;;;4980265;28;20416;-85
2022/06/09 04:24:15;;;;;;;5.17;2.10;;;;;;;;;;4979973;28;20421;-86
2022/06/09 04:26:41;;;;;;;3.83;1.90;;;;;;;;;;4979944;28;20496;-86
2022/06/09 04:29:08;;;;;;;4.37;2.20;;;;;;;;;;4977805;28;20529;-86
2022/06/09 04:31:36;;;;;;;2.97;2.33;;;;;;;;;;4977510;28;20914;-86
2022/06/09 04:34:02;;;;;;;4.77;2.00;;;;;;;;;;4979567;28;20411;-86
2022/06/09 04:36:28;;;;;;;4.90;1.90;;;;;;;;;;4982874;28;20404;-86
2022/06/09 04:38:54;;;;;;;3.13;2.30;;;;;;;;;;4982838;28;20476;-86
2022/06/09 04:41:20;;;;;;;4.80;2.07;;;;;;;;;;4983572;28;20401;-86
2022/06/09 04:43:47;;;;;;;5.07;3.50;;;;;;;;;;4982619;28;20488;-86
2022/06/09 04:46:14;;;;;;;2.30;1.80;;;;;;;;;;4981143;28;20551;-86
2022/06/09 04:48:40;;;;;;;5.60;2.10;;;;;;;;;;5017526;23;21002;-84
2022/06/09 04:51:07;;;;;;;3.40;2.30;;;;;;;;;;5021444;28;20408;-85
2022/06/09 04:53:33;;;;;;;3.73;1.87;;;;;;;;;;5004652;28;20410;-85
2022/06/09 04:55:59;;;;;;;3.40;2.27;;;;;;;;;;5022725;28;20450;-85
2022/06/09 04:58:26;;;;;;;4.77;2.07;;;;;;;;;;5021920;28;20458;-84
2022/06/09 05:00:52;;;;;;;2.10;1.80;;;;;;;;;;5020363;28;20778;-85
2022/06/09 05:03:20;;;;;;;3.17;2.00;;;;;;;;;;5021192;28;20400;-84
2022/06/09 05:05:46;;;;;;;2.20;1.60;;;;;;;;;;5022038;28;20430;-85
2022/06/09 05:08:13;;;;;;;5.03;2.00;;;;;;;;;;5022007;28;20459;-85
2022/06/09 05:10:40;;;;;;;2.03;1.27;;;;;;;;;;5023139;28;20453;-85
2022/06/09 05:13:06;;;;;;;4.30;2.10;;;;;;;;;;5023946;28;20425;-85
2022/06/09 05:15:37;;;;;;;7.13;2.67;;;;;;;;;;5040622;28;20419;-85
2022/06/09 05:18:04;;;;;;;2.00;1.60;;;;;;;;;;5040608;28;20439;-85
2022/06/09 05:20:30;;;;;;;2.60;1.73;;;;;;;;;;5024063;28;20400;-85
2022/06/09 05:22:56;;;;;;;3.90;2.03;;;;;;;;;;5040328;28;20418;-85
2022/06/09 05:25:23;;;;;;;6.23;2.20;;;;;;;;;;5041143;28;20479;-86
2022/06/09 05:27:49;;;;;;;4.60;1.70;;;;;;;;;;5040789;28;20478;-86
2022/06/09 05:30:17;;;;;;;4.07;2.37;;;;;;;;;;5039658;28;20415;-86
2022/06/09 05:32:43;;;;;;;3.20;1.63;;;;;;;;;;5040592;28;20419;-85
2022/06/09 05:35:12;;;;;;;3.90;2.17;;;;;;;;;;5033467;28;20773;-85
2022/06/09 05:45:58;;;;;;;4.23;2.10;;;;;;;;;;5025272;28;20403;-85
2022/06/09 05:48:25;;;;;;;4.67;2.10;;;;;;;;;;5028428;28;20462;-84
2022/06/09 05:50:52;;;;;;;3.30;2.40;;;;;;;;;;5027383;28;20407;-84
2022/06/09 05:53:18;;;;;;;7.00;2.37;;;;;;;;;;5025094;28;20415;-85
2022/06/09 05:55:44;;;;;;;2.07;1.60;;;;;;;;;;5020838;28;20399;-85
2022/06/09 05:58:10;;;;;;;3.63;2.23;;;;;;;;;;5027909;28;20434;-84
2022/06/09 06:00:37;;;;;;;4.50;2.03;;;;;;;;;;5005002;28;20558;-84
2022/06/09 06:03:03;;;;;;;2.60;1.87;;;;;;;;;;5027273;28;20780;-84
2022/06/09 06:08:13;;;;;;;4.40;1.97;;;;;;;;;;5026331;28;20541;-85
2022/06/09 06:10:39;;;;;;;3.00;2.30;;;;;;;;;;5027479;28;20408;-84
2022/06/09 06:13:05;;;;;;;2.60;1.93;;;;;;;;;;5024285;28;20822;-84
2022/06/09 06:15:32;;;;;;;2.10;1.60;;;;;;;;;;5028607;28;20427;-84
2022/06/09 06:18:02;;;;;;;2.90;1.80;;;;;;;;;;5027861;28;20423;-84
2022/06/09 06:20:29;;;;;;;2.53;1.70;;;;;;;;;;5024568;28;20450;-84
2022/06/09 06:22:55;;;;;;;2.73;1.73;;;;;;;;;;5025326;28;20458;-84
2022/06/09 06:25:21;;;;;;;4.93;1.97;;;;;;;;;;5026001;28;20955;-83
2022/06/09 06:27:47;;;;;;;3.50;1.93;;;;;;;;;;5018464;28;20546;-83
2022/06/09 06:30:13;;;;;;;4.03;1.90;;;;;;;;;;5015666;28;20410;-82
2022/06/09 06:32:39;;;;;;;5.83;2.23;;;;;;;;;;5018175;28;20407;-82
2022/06/09 06:35:06;;;;;;;3.40;1.50;;;;;;;;;;5001807;28;20486;-84
2022/06/09 06:37:33;;;;;;;6.77;4.80;;;;;;;;;;5019485;28;20486;-84
2022/06/09 06:39:59;;;;;;;3.23;1.80;;;;;;;;;;5022887;28;20895;-86
2022/06/09 06:42:25;;;;;;;3.17;1.90;;;;;;;;;;5022652;28;20415;-84
2022/06/09 06:44:51;;;;;;;3.07;1.53;;;;;;;;;;5032553;28;20387;-83
2022/06/09 06:47:17;;;;;;;6.90;1.77;;;;;;;;;;5030743;28;20462;-83
2022/06/09 06:49:43;;;;;;;3.33;1.80;;;;;;;;;;5024327;28;20435;-84
2022/06/09 06:52:09;;;;;;;2.57;1.47;;;;;;;;;;5019802;28;20449;-83
2022/06/09 06:54:35;;;;;;;2.60;1.80;;;;;;;;;;5020222;28;20459;-83
2022/06/09 06:57:05;;;;;;;3.40;1.50;;;;;;;;;;5018415;28;20412;-82
2022/06/09 06:59:31;;;;;;;2.73;1.43;;;;;;;;;;5000071;28;20435;-82
2022/06/09 07:01:57;;;;;;;2.17;1.50;;;;;;;;;;5000394;28;20423;-82
2022/06/09 07:04:23;;;;;;;1.83;1.40;;;;;;;;;;5018763;28;20438;-84
2022/06/09 07:06:49;;;;;;;3.47;1.43;;;;;;;;;;5021554;28;20454;-83
2022/06/09 07:09:15;;;;;;;3.83;1.50;;;;;;;;;;5021221;28;20464;-84
2022/06/09 07:11:43;;;;;;;5.87;1.40;;;;;;;;;;5020688;28;20787;-83
2022/06/09 07:14:09;;;;;;;1.50;1.17;;;;;;;;;;5024908;28;20439;-84
2022/06/09 07:16:35;;;;;;;2.93;1.50;;;;;;;;;;5026518;28;20415;-85
2022/06/09 07:19:02;;;;;;;2.10;1.50;;;;;;;;;;5020068;28;20454;-87
2022/06/09 07:21:28;;;;;;;3.50;1.20;;;;;;;;;;5017849;28;20407;-86
2022/06/09 07:23:54;;;;;;;4.10;1.60;;;;;;;;;;4998158;28;20419;-87
2022/06/09 07:26:20;;;;;;;2.00;1.67;;;;;;;;;;5022455;28;20507;-86
2022/06/09 07:28:46;;;;;;;4.60;1.97;;;;;;;;;;5016290;28;20435;-85
2022/06/09 07:31:15;;;;;;;5.30;1.20;;;;;;;;;;5015009;28;20415;-86
2022/06/09 07:33:41;;;;;;;3.43;1.40;;;;;;;;;;5014110;28;20439;-85
2022/06/09 07:36:17;;;;;;;3.37;1.47;;;;;;;;;;5015911;28;20823;-87
2022/06/09 07:38:46;;;;;;;1.77;1.30;;;;;;;;;;4997386;28;20435;-85
2022/06/09 07:41:20;;;;;;;2.80;1.30;;;;;;;;;;5016171;28;20399;-85
2022/06/09 07:43:59;;;;;;;1.90;1.27;;;;;;;;;;4998456;28;20826;-83
2022/06/09 07:46:25;;;;;;;3.13;1.50;;;;;;;;;;5000115;28;20465;-85
2022/06/09 07:48:52;;;;;;;1.60;0.93;;;;;;;;;;5014151;28;20478;-84
2022/06/09 07:51:19;;;;;;;3.60;1.50;;;;;;;;;;5019768;28;20502;-84
2022/06/09 07:53:45;;;;;;;3.70;1.50;;;;;;;;;;5003653;28;20411;-85
2022/06/09 07:56:12;;;;;;;12.90;2.30;;;;;;;;;;5004876;28;20467;-85
2022/06/09 07:58:38;;;;;;;5.80;2.73;;;;;;;;;;5003353;28;20952;-83
2022/06/09 08:01:04;;;;;;;11.30;3.97;;;;;;;;;;4995908;28;20439;-84
2022/06/09 08:03:31;;;;;;;10.80;4.23;;;;;;;;;;5003470;28;20455;-83
2022/06/09 08:05:57;;;;;;;7.30;3.33;;;;;;;;;;5022109;28;20434;-83
2022/06/09 08:08:25;;;;;;;8.43;4.40;;;;;;;;;;5003968;28;20451;-83
2022/06/09 08:10:51;;;;;;;9.50;5.17;;;;;;;;;;5024031;28;20512;-83
2022/06/09 08:13:18;;;;;;;9.13;4.90;;;;;;;;;;5024579;28;20426;-83
2022/06/09 08:15:45;;;;;;;9.37;5.50;;;;;;;;;;5007600;28;20407;-82
2022/06/09 08:18:11;;;;;;;12.00;7.10;;;;;;;;;;5013545;28;20438;-83
2022/06/09 08:20:39;;;;;;;9.73;6.30;;;;;;;;;;5034906;28;20434;-82
2022/06/09 08:23:11;;;;;;;11.50;6.60;;;;;;;;;;5033101;28;20479;-83
2022/06/09 08:25:38;;;;;;;18.43;8.73;;;;;;;;;;5033220;28;20379;-83
2022/06/09 08:28:04;;;;;;;13.00;7.20;;;;;;;;;;5029716;28;20467;-82
2022/06/09 08:30:30;;;;;;;21.80;6.77;;;;;;;;;;5031843;28;20477;-84
2022/06/09 08:33:00;;;;;;;8.10;6.07;;;;;;;;;;5030825;28;20426;-83
2022/06/09 08:35:26;;;;;;;11.67;6.30;;;;;;;;;;5031439;28;20442;-83
2022/06/09 08:37:53;;;;;;;7.87;5.80;;;;;;;;;;5031666;28;20488;-83
2022/06/09 08:40:22;;;;;;;10.87;7.00;;;;;;;;;;5030184;28;20434;-83
2022/06/09 08:42:48;;;;;;;25.97;7.97;;;;;;;;;;5026669;28;20490;-84
2022/06/09 08:45:18;;;;;;;13.33;7.90;;;;;;;;;;5031208;28;20498;-83
2022/06/09 08:47:45;;;;;;;14.33;7.00;;;;;;;;;;5030377;28;20501;-84
2022/06/09 08:50:17;;;;;;;18.37;7.13;;;;;;;;;;5013963;28;20395;-83
2022/06/09 08:52:43;;;;;;;11.73;7.67;;;;;;;;;;5013593;28;20443;-85
2022/06/09 08:55:28;;;;;;;13.70;6.90;;;;;;;;;;5029302;28;20454;-84
2022/06/09 08:57:58;;;;;;;8.90;7.30;;;;;;;;;;5030920;28;20438;-84
2022/06/09 09:00:26;;;;;;;9.73;6.27;;;;;;;;;;5029735;28;20427;-83
2022/06/09 09:03:10;;;;;;;8.47;6.50;;;;;;;;;;5028277;28;20427;-83
2022/06/09 09:05:36;;;;;;;9.50;5.60;;;;;;;;;;5009436;28;20397;-83
2022/06/09 09:08:04;;;;;;;8.20;6.77;;;;;;;;;;5025282;28;20530;-83
2022/06/09 09:10:40;;;;;;;9.03;5.83;;;;;;;;;;5028171;28;20936;-83
2022/06/09 09:13:21;;;;;;;7.93;5.33;;;;;;;;;;5028214;28;20410;-86
2022/06/09 09:15:59;;;;;;;10.30;6.00;;;;;;;;;;5028552;28;20413;-83
2022/06/09 09:18:34;;;;;;;10.80;6.00;;;;;;;;;;5029027;28;20430;-84
2022/06/09 09:21:03;;;;;;;7.80;5.40;;;;;;;;;;5026778;28;20446;-84
2022/06/09 09:23:52;;;;;;;7.57;6.00;;;;;;;;;;5028986;28;20433;-83
2022/06/09 09:26:24;;;;;;;7.40;4.90;;;;;;;;;;5001389;28;20412;-83
2022/06/09 09:28:51;;;;;;;14.03;4.70;;;;;;;;;;5029302;28;20454;-83
2022/06/09 09:31:22;;;;;;;5.13;3.40;;;;;;;;;;5029296;28;20395;-83
2022/06/09 09:33:48;;;;;;;6.60;3.80;;;;;;;;;;5027441;28;20439;-84
2022/06/09 09:36:26;;;;;;;5.50;3.47;;;;;;;;;;5026350;28;20419;-84
2022/06/09 09:39:12;;;;;;;6.23;3.50;;;;;;;;;;5027132;28;20435;-83
2022/06/09 09:41:39;;;;;;;9.47;4.30;;;;;;;;;;5008655;28;20415;-84
2022/06/09 09:44:17;;;;;;;7.53;4.30;;;;;;;;;;5025467;28;20399;-83
2022/06/09 09:46:47;;;;;;;7.03;3.70;;;;;;;;;;5025451;28;20463;-84
2022/06/09 09:49:22;;;;;;;5.90;3.30;;;;;;;;;;5007453;28;20451;-83
2022/06/09 09:51:49;;;;;;;4.57;3.67;;;;;;;;;;5009218;28;20391;-83
2022/06/09 09:54:24;;;;;;;5.17;2.90;;;;;;;;;;5027220;28;20519;-84
2022/06/09 09:57:01;;;;;;;4.80;3.40;;;;;;;;;;5019164;28;20403;-83
2022/06/09 09:59:27;;;;;;;5.93;3.40;;;;;;;;;;5025260;28;20446;-84
2022/06/09 10:10:26;;;;;;;14.33;3.63;;;;;;;;;;5020789;28;20899;-84
2022/06/09 10:12:53;;;;;;;11.97;3.97;;;;;;;;;;5026452;28;20404;-84
2022/06/09 10:15:20;;;;;;;7.70;3.90;;;;;;;;;;5023931;28;20805;-85
2022/06/09 10:17:55;;;;;;;8.67;4.50;;;;;;;;;;5025403;28;20439;-86
2022/06/09 10:20:21;;;;;;;9.80;3.50;;;;;;;;;;5005818;28;20449;-84
2022/06/09 10:23:06;;;;;;;5.60;4.60;;;;;;;;;;5021742;28;20422;-84
2022/06/09 10:25:32;;;;;;;9.43;4.87;;;;;;;;;;5010140;28;20442;-84
2022/06/09 10:28:01;;;;;;;8.90;5.47;;;;;;;;;;5026205;28;20474;-84
2022/06/09 10:30:30;;;;;;;12.07;5.43;;;;;;;;;;5026625;28;20416;-85
2022/06/09 10:32:58;;;;;;;9.60;4.80;;;;;;;;;;5026946;28;20400;-84
2022/06/09 10:35:24;;;;;;;5.17;4.67;;;;;;;;;;5009600;28;20423;-85
2022/06/09 10:37:56;;;;;;;10.83;5.40;;;;;;;;;;5027050;28;20487;-84
2022/06/09 10:40:33;;;;;;;7.80;5.97;;;;;;;;;;5024524;28;20419;-85
2022/06/09 10:43:05;;;;;;;8.20;5.23;;;;;;;;;;5028687;28;20411;-84
2022/06/09 10:45:46;;;;;;;8.03;4.80;;;;;;;;;;5026730;28;20455;-85
2022/06/09 10:56:48;;;;;;;8.77;3.83;;;;;;;;;;5026270;28;20480;-84
2022/06/09 10:59:17;;;;;;;10.40;4.73;;;;;;;;;;5026882;28;20426;-85
2022/06/09 11:01:44;;;;;;;6.70;3.70;;;;;;;;;;5026491;28;20406;-85
2022/06/09 11:04:14;;;;;;;6.07;3.70;;;;;;;;;;5025908;28;20950;-85
2022/06/09 11:06:52;;;;;;;9.87;5.50;;;;;;;;;;5025520;28;20522;-84
2022/06/09 11:09:26;;;;;;;6.27;3.93;;;;;;;;;;5018324;28;20522;-86
2022/06/09 11:11:54;;;;;;;7.30;4.30;;;;;;;;;;5028340;28;20388;-84
2022/06/09 11:14:39;;;;;;;3.33;2.07;;;;;;;;;;5009829;28;20430;-85
2022/06/09 11:17:34;;;;;;;7.03;4.07;;;;;;;;;;5027883;28;20407;-85
2022/06/09 11:20:03;;;;;;;6.20;3.43;;;;;;;;;;4957341;28;20411;-84
2022/06/09 11:22:48;;;;;;;9.17;3.50;;;;;;;;;;5016584;28;20405;-84
2022/06/09 11:25:37;;;;;;;5.17;2.80;;;;;;;;;;5014928;28;20414;-84
2022/06/09 11:28:06;;;;;;;5.20;3.33;;;;;;;;;;5026467;28;20474;-84
2022/06/09 11:30:32;;;;;;;6.60;2.60;;;;;;;;;;5026770;28;20458;-83
2022/06/09 11:33:17;;;;;;;4.10;2.43;;;;;;;;;;5026725;28;20416;-84
2022/06/09 11:35:44;;;;;;;2.60;2.13;;;;;;;;;;5026101;28;20395;-84
2022/06/09 11:38:34;;;;;;;3.93;1.83;;;;;;;;;;5025759;28;20423;-85
2022/06/09 11:41:00;;;;;;;3.70;2.10;;;;;;;;;;5025945;28;20399;-85
2022/06/09 11:43:49;;;;;;;4.97;2.20;;;;;;;;;;5032916;28;20423;-82
2022/06/09 11:46:36;;;;;;;14.03;2.00;;;;;;;;;;4988416;28;21019;-82
2022/06/09 11:49:05;;;;;;;5.13;1.47;;;;;;;;;;5016776;28;20458;-84
2022/06/09 11:51:32;;;;;;;3.50;2.17;;;;;;;;;;5005675;28;20445;-83
2022/06/09 11:54:00;;;;;;;3.10;2.10;;;;;;;;;;5007398;28;20780;-83
2022/06/09 11:56:34;;;;;;;6.67;2.27;;;;;;;;;;5022601;28;20510;-83
2022/06/09 11:59:12;;;;;;;4.47;2.17;;;;;;;;;;5025231;28;20517;-84
2022/06/09 12:01:38;;;;;;;4.80;1.63;;;;;;;;;;5007637;28;20486;-84
2022/06/09 12:04:04;;;;;;;3.57;2.17;;;;;;;;;;5021894;28;20431;-81
2022/06/09 12:06:49;;;;;;;3.33;1.50;;;;;;;;;;5009949;28;20458;-82
2022/06/09 12:09:34;;;;;;;3.30;2.07;;;;;;;;;;5023056;28;20429;-82
2022/06/09 12:12:19;;;;;;;2.77;1.67;;;;;;;;;;5028328;28;20506;-81
2022/06/09 12:14:45;;;;;;;4.00;1.50;;;;;;;;;;5009805;28;20412;-80
2022/06/09 12:17:29;;;;;;;3.37;1.40;;;;;;;;;;5024242;28;20851;-84
2022/06/09 12:19:59;;;;;;;4.13;1.50;;;;;;;;;;5021530;28;20423;-82
2022/06/09 12:22:41;;;;;;;4.33;1.70;;;;;;;;;;5004054;28;20407;-83
2022/06/09 12:25:10;;;;;;;5.53;1.37;;;;;;;;;;4983232;28;20913;-83
2022/06/09 12:27:40;;;;;;;4.70;1.77;;;;;;;;;;5000854;28;20566;-83
2022/06/09 12:30:15;;;;;;;2.37;1.30;;;;;;;;;;5000566;28;20418;-82
2022/06/09 12:32:42;;;;;;;2.10;1.10;;;;;;;;;;5018394;28;20415;-83
2022/06/09 12:35:27;;;;;;;6.30;1.10;;;;;;;;;;5004343;28;20419;-83
2022/06/09 12:38:13;;;;;;;2.80;1.10;;;;;;;;;;5004043;28;20451;-83
2022/06/09 12:40:42;;;;;;;2.77;1.50;;;;;;;;;;5002271;28;20454;-83
2022/06/09 12:43:19;;;;;;;2.83;1.50;;;;;;;;;;5022613;28;20435;-82
2022/06/09 12:45:58;;;;;;;2.20;1.27;;;;;;;;;;5022631;28;20546;-83
2022/06/09 12:48:28;;;;;;;2.70;1.30;;;;;;;;;;5021171;28;20503;-84
2022/06/09 12:50:54;;;;;;;2.63;1.60;;;;;;;;;;5021341;28;20426;-83
2022/06/09 12:53:26;;;;;;;3.83;1.53;;;;;;;;;;5022373;28;20407;-83
2022/06/09 12:56:13;;;;;;;3.60;1.40;;;;;;;;;;5021151;28;20458;-82
2022/06/09 12:58:46;;;;;;;2.70;1.20;;;;;;;;;;5010339;28;20441;-85
2022/06/09 13:01:14;;;;;;;2.37;1.20;;;;;;;;;;5008386;28;20431;-83
2022/06/09 13:03:43;;;;;;;2.40;1.43;;;;;;;;;;5024107;28;20419;-83
2022/06/09 13:06:10;;;;;;;2.60;1.10;;;;;;;;;;5006700;28;21019;-84
2022/06/09 13:08:42;;;;;;;2.87;1.23;;;;;;;;;;5023010;28;20443;-83
2022/06/09 13:11:14;;;;;;;4.37;1.20;;;;;;;;;;5023272;28;20440;-82
2022/06/09 13:13:41;;;;;;;2.23;1.30;;;;;;;;;;5022606;28;20470;-83
2022/06/09 13:16:13;;;;;;;1.90;1.10;;;;;;;;;;5023085;28;20422;-83
2022/06/09 13:18:41;;;;;;;4.33;2.03;;;;;;;;;;5021181;28;20466;-83
2022/06/09 13:21:27;;;;;;;3.70;1.50;;;;;;;;;;5022364;28;20428;-84
2022/06/09 13:23:59;;;;;;;3.00;1.40;;;;;;;;;;5022354;28;20419;-83
2022/06/09 13:26:27;;;;;;;2.77;1.40;;;;;;;;;;5022742;28;20489;-83
2022/06/09 13:28:54;;;;;;;3.30;1.37;;;;;;;;;;5022862;28;20827;-83
2022/06/09 13:31:38;;;;;;;5.17;1.40;;;;;;;;;;5026119;28;20454;-84
2022/06/09 13:34:10;;;;;;;2.37;1.47;;;;;;;;;;5027216;28;20437;-83
2022/06/09 13:36:38;;;;;;;2.37;1.40;;;;;;;;;;5039954;22;20644;-85
2022/06/09 13:39:23;;;;;;;2.30;1.40;;;;;;;;;;4988405;28;20448;-87
2022/06/09 13:41:49;;;;;;;2.53;1.20;;;;;;;;;;4983084;28;20508;-87
2022/06/09 13:44:22;;;;;;;3.37;1.40;;;;;;;;;;5002902;28;20421;-87
2022/06/09 13:47:00;;;;;;;2.43;1.10;;;;;;;;;;4986805;28;21031;-86
2022/06/09 13:49:29;;;;;;;1.97;1.00;;;;;;;;;;5006973;28;20423;-84
2022/06/09 13:51:57;;;;;;;1.60;0.83;;;;;;;;;;5014910;28;20404;-84
2022/06/09 13:54:26;;;;;;;1.67;0.90;;;;;;;;;;4974938;28;20536;-86
2022/06/09 13:56:52;;;;;;;1.57;0.73;;;;;;;;;;5004500;28;20437;-87
2022/06/09 13:59:20;;;;;;;1.87;1.00;;;;;;;;;;4976374;28;20415;-87
2022/06/09 14:01:46;;;;;;;2.30;1.10;;;;;;;;;;4991225;28;20420;-85
2022/06/09 14:04:16;;;;;;;2.93;0.90;;;;;;;;;;4997035;28;20448;-87
2022/06/09 14:06:42;;;;;;;4.07;0.93;;;;;;;;;;4967297;28;20465;-86
2022/06/09 14:09:11;;;;;;;2.43;0.80;;;;;;;;;;4976614;28;20421;-87
2022/06/09 14:11:37;;;;;;;2.00;0.83;;;;;;;;;;4988529;28;20917;-88
2022/06/09 14:14:03;;;;;;;3.30;1.03;;;;;;;;;;4995531;28;20416;-88
2022/06/09 14:16:33;;;;;;;3.27;0.90;;;;;;;;;;4992632;28;20468;-86
2022/06/09 14:19:00;;;;;;;1.40;0.73;;;;;;;;;;4982576;28;20886;-85
2022/06/09 14:21:26;;;;;;;1.63;0.80;;;;;;;;;;4990987;28;20421;-86
2022/06/09 14:23:52;;;;;;;5.00;1.10;;;;;;;;;;4981297;28;20421;-85
2022/06/09 14:26:22;;;;;;;2.70;1.53;;;;;;;;;;4979564;28;20467;-87
2022/06/09 14:28:49;;;;;;;4.70;1.33;;;;;;;;;;5003483;28;20411;-86
2022/06/09 14:31:16;;;;;;;2.50;0.90;;;;;;;;;;4997057;28;20412;-85
2022/06/09 14:33:42;;;;;;;2.17;1.10;;;;;;;;;;4978957;28;20416;-86
2022/06/09 14:36:10;;;;;;;1.57;0.80;;;;;;;;;;5000907;28;20952;-87
2022/06/09 14:38:36;;;;;;;2.53;1.00;;;;;;;;;;4998290;28;20491;-85
2022/06/09 14:41:02;;;;;;;2.23;0.93;;;;;;;;;;4981145;28;20528;-86
2022/06/09 14:43:28;;;;;;;2.67;1.03;;;;;;;;;;4967599;28;20413;-87
2022/06/09 14:45:55;;;;;;;2.60;0.97;;;;;;;;;;4967121;28;20475;-87
2022/06/09 14:48:23;;;;;;;1.63;0.90;;;;;;;;;;4981902;28;20452;-86
2022/06/09 14:50:53;;;;;;;2.13;0.90;;;;;;;;;;4986801;28;20435;-87
2022/06/09 14:53:21;;;;;;;1.73;0.93;;;;;;;;;;5000951;28;20456;-86
2022/06/09 14:55:48;;;;;;;2.80;0.90;;;;;;;;;;4984421;28;20405;-86
2022/06/09 14:58:16;;;;;;;1.90;0.90;;;;;;;;;;5000379;28;20427;-87
2022/06/09 15:00:42;;;;;;;2.90;1.10;;;;;;;;;;4985099;28;20420;-87
2022/06/09 15:03:08;;;;;;;1.83;1.07;;;;;;;;;;4978428;28;20416;-85
2022/06/09 15:05:34;;;;;;;1.60;1.00;;;;;;;;;;4988027;28;20426;-86
2022/06/09 15:08:01;;;;;;;1.80;1.10;;;;;;;;;;4999093;28;20461;-88
2022/06/09 15:10:32;;;;;;;1.90;1.10;;;;;;;;;;4968139;28;20410;-87
2022/06/09 15:12:58;;;;;;;2.57;1.00;;;;;;;;;;5000432;28;20398;-86
2022/06/09 15:15:25;;;;;;;4.97;1.13;;;;;;;;;;5013202;28;20452;-86
2022/06/09 15:17:52;;;;;;;2.20;0.90;;;;;;;;;;4993298;28;20448;-84
2022/06/09 15:20:21;;;;;;;1.73;1.00;;;;;;;;;;4985332;28;20441;-87
2022/06/09 15:22:47;;;;;;;2.47;0.97;;;;;;;;;;4986375;28;20444;-85
2022/06/09 15:25:14;;;;;;;2.30;1.10;;;;;;;;;;4995392;28;20427;-88